Terminal Aerodrome Forecast
Issued by NWS Mt. Holly, NJ

Home | Current Version | Previous Version | Text Only | Print | Product List | Glossary On
Versions: 1 2 3 4 5 6 7 8 9 10 11 12 13 14 15 16 17 18 19 20 21 22 23
000
FTUS41 KPHI 291721
TAFILG
TAF
KILG 291721Z 2918/3018 11005KT P6SM OVC010
     FM291900 12006KT P6SM BKN015
     FM300000 11007KT 6SM BR OVC008
     FM300500 11004KT 4SM BR OVC004
      TEMPO 3007/3011 2SM BR OVC002
     FM301600 12008KT 4SM BR OVC008=

USA.gov is the U.S. government's official web portal to all federal, state and local government web resources and services.